Unionville Center, Ohio
Current Conditions -  °F | °C
As of 11:13 AM on Thursday 27 Nov 2014 (Local Time) from KMRT Reporting Station
Overcast Overcast  
Wind Chill: 22°   Ceiling: 1400
Heat Index: 30°   Visibility: 10mi
Dew Point: 23°   Wind: 8mph
Humidity: 76%   Direction: 340°NNW
Pressure: 30.21"   Gusts: NA
Location:  40.14°N, 83.34°W
Report Text: KMRT 271613Z AUTO 34007KT 10SM BKN014 OVC024 M01/M05 A3021 RMK AO2 T10121050
Loading
Personal Weather Stations






























Interactive Weather Map New forecast layout! Learn more

10-Day Weather Forecast

Advertisements
Track Severe Weather on mobile